sensor_id;sensor_type;location;lat;lon;timestamp;temperature;humidity
52439;DHT22;38359;53.150;6.504;2022-11-22T00:02:46;3.80;99.90
52439;DHT22;38359;53.150;6.504;2022-11-22T00:13:12;3.80;99.90
52439;DHT22;38359;53.150;6.504;2022-11-22T00:23:37;3.80;99.90
52439;DHT22;38359;53.150;6.504;2022-11-22T00:34:03;3.70;99.90
52439;DHT22;38359;53.150;6.504;2022-11-22T00:44:29;3.60;99.90
52439;DHT22;38359;53.150;6.504;2022-11-22T00:54:55;3.50;99.90
52439;DHT22;38359;53.150;6.504;2022-11-22T01:05:20;3.50;99.90
52439;DHT22;38359;53.150;6.504;2022-11-22T01:15:46;3.40;99.90
52439;DHT22;38359;53.150;6.504;2022-11-22T01:26:12;3.50;99.90
52439;DHT22;38359;53.150;6.504;2022-11-22T01:36:38;3.50;99.90
52439;DHT22;38359;53.150;6.504;2022-11-22T01:47:12;3.60;99.90
52439;DHT22;38359;53.150;6.504;2022-11-22T01:57:46;3.50;99.90
52439;DHT22;38359;53.150;6.504;2022-11-22T02:08:49;3.60;99.90
52439;DHT22;38359;53.150;6.504;2022-11-22T02:19:46;3.50;99.90
52439;DHT22;38359;53.150;6.504;2022-11-22T02:30:14;3.60;99.90
52439;DHT22;38359;53.150;6.504;2022-11-22T02:40:48;3.60;99.90
52439;DHT22;38359;53.150;6.504;2022-11-22T02:51:24;3.70;99.90
52439;DHT22;38359;53.150;6.504;2022-11-22T03:01:50;3.60;99.90
52439;DHT22;38359;53.150;6.504;2022-11-22T03:12:16;3.60;99.90
52439;DHT22;38359;53.150;6.504;2022-11-22T03:22:42;3.80;99.90
52439;DHT22;38359;53.150;6.504;2022-11-22T03:33:08;3.70;99.90
52439;DHT22;38359;53.150;6.504;2022-11-22T03:43:34;3.90;99.90
52439;DHT22;38359;53.150;6.504;2022-11-22T03:54:00;3.80;99.90
52439;DHT22;38359;53.150;6.504;2022-11-22T04:04:26;4.10;99.90
52439;DHT22;38359;53.150;6.504;2022-11-22T04:14:51;4.10;99.90
52439;DHT22;38359;53.150;6.504;2022-11-22T04:25:33;4.10;99.90
52439;DHT22;38359;53.150;6.504;2022-11-22T04:36:00;4.10;99.90
52439;DHT22;38359;53.150;6.504;2022-11-22T04:46:26;4.10;99.90
52439;DHT22;38359;53.150;6.504;2022-11-22T04:56:51;4.20;99.90
52439;DHT22;38359;53.150;6.504;2022-11-22T05:07:17;4.40;99.90
52439;DHT22;38359;53.150;6.504;2022-11-22T05:17:43;4.40;99.90
52439;DHT22;38359;53.150;6.504;2022-11-22T05:28:09;4.40;99.90
52439;DHT22;38359;53.150;6.504;2022-11-22T05:38:35;4.50;99.90
52439;DHT22;38359;53.150;6.504;2022-11-22T05:49:04;4.60;99.90
52439;DHT22;38359;53.150;6.504;2022-11-22T05:59:30;4.60;99.90
52439;DHT22;38359;53.150;6.504;2022-11-22T06:09:56;4.60;99.90
52439;DHT22;38359;53.150;6.504;2022-11-22T06:20:22;4.70;99.90
52439;DHT22;38359;53.150;6.504;2022-11-22T06:30:47;4.70;99.90
52439;DHT22;38359;53.150;6.504;2022-11-22T06:41:18;4.90;99.90
52439;DHT22;38359;53.150;6.504;2022-11-22T06:51:45;4.90;99.90
52439;DHT22;38359;53.150;6.504;2022-11-22T07:02:11;5.00;99.90
52439;DHT22;38359;53.150;6.504;2022-11-22T07:12:37;4.90;99.90
52439;DHT22;38359;53.150;6.504;2022-11-22T07:23:04;5.00;99.90
52439;DHT22;38359;53.150;6.504;2022-11-22T07:33:30;5.20;99.90
52439;DHT22;38359;53.150;6.504;2022-11-22T07:43:56;5.20;99.90
52439;DHT22;38359;53.150;6.504;2022-11-22T07:54:22;5.30;99.90
52439;DHT22;38359;53.150;6.504;2022-11-22T08:04:48;5.60;99.90
52439;DHT22;38359;53.150;6.504;2022-11-22T08:15:15;5.80;99.90
52439;DHT22;38359;53.150;6.504;2022-11-22T08:25:41;5.80;99.90
52439;DHT22;38359;53.150;6.504;2022-11-22T08:36:07;5.80;99.90
52439;DHT22;38359;53.150;6.504;2022-11-22T08:46:33;5.70;99.90
52439;DHT22;38359;53.150;6.504;2022-11-22T08:56:58;5.60;99.90
52439;DHT22;38359;53.150;6.504;2022-11-22T09:07:24;5.80;99.90
52439;DHT22;38359;53.150;6.504;2022-11-22T09:17:50;5.90;99.90
52439;DHT22;38359;53.150;6.504;2022-11-22T09:28:16;5.90;99.90
52439;DHT22;38359;53.150;6.504;2022-11-22T09:38:42;6.00;99.90
52439;DHT22;38359;53.150;6.504;2022-11-22T09:49:24;5.90;99.90
52439;DHT22;38359;53.150;6.504;2022-11-22T10:00:24;6.00;99.90
52439;DHT22;38359;53.150;6.504;2022-11-22T10:10:53;6.00;99.90
52439;DHT22;38359;53.150;6.504;2022-11-22T10:21:19;6.10;99.90
52439;DHT22;38359;53.150;6.504;2022-11-22T11:04:42;7.00;99.90
52439;DHT22;38359;53.150;6.504;2022-11-22T11:15:38;7.00;99.90
52439;DHT22;38359;53.150;6.504;2022-11-22T11:26:31;6.90;99.90
52439;DHT22;38359;53.150;6.504;2022-11-22T11:36:58;7.10;99.90
52439;DHT22;38359;53.150;6.504;2022-11-22T11:47:33;7.10;99.90
52439;DHT22;38359;53.150;6.504;2022-11-22T11:57:59;7.40;99.90
52439;DHT22;38359;53.150;6.504;2022-11-22T12:08:30;7.50;99.90
52439;DHT22;38359;53.150;6.504;2022-11-22T12:19:23;7.60;99.90
52439;DHT22;38359;53.150;6.504;2022-11-22T12:30:00;7.70;99.90
52439;DHT22;38359;53.150;6.504;2022-11-22T12:40:39;7.70;99.90
52439;DHT22;38359;53.150;6.504;2022-11-22T12:51:12;7.50;99.90
52439;DHT22;38359;53.150;6.504;2022-11-22T13:01:48;7.60;99.90
52439;DHT22;38359;53.150;6.504;2022-11-22T13:12:28;7.50;99.90
52439;DHT22;38359;53.150;6.504;2022-11-22T13:33:56;7.60;99.90
52439;DHT22;38359;53.150;6.504;2022-11-22T13:44:27;7.60;99.90
52439;DHT22;38359;53.150;6.504;2022-11-22T13:55:02;7.50;99.90
52439;DHT22;38359;53.150;6.504;2022-11-22T14:05:58;7.50;99.90
52439;DHT22;38359;53.150;6.504;2022-11-22T14:27:36;7.40;99.90
52439;DHT22;38359;53.150;6.504;2022-11-22T14:48:59;7.40;99.90
52439;DHT22;38359;53.150;6.504;2022-11-22T15:21:25;7.20;99.90
52439;DHT22;38359;53.150;6.504;2022-11-22T15:31:52;7.10;99.90
52439;DHT22;38359;53.150;6.504;2022-11-22T15:42:19;7.10;99.90
52439;DHT22;38359;53.150;6.504;2022-11-22T15:52:50;7.10;99.90
52439;DHT22;38359;53.150;6.504;2022-11-22T16:03:24;7.10;99.90
52439;DHT22;38359;53.150;6.504;2022-11-22T16:13:50;7.20;99.90
52439;DHT22;38359;53.150;6.504;2022-11-22T16:24:17;7.30;99.90
52439;DHT22;38359;53.150;6.504;2022-11-22T16:34:43;7.20;99.90
52439;DHT22;38359;53.150;6.504;2022-11-22T16:45:15;7.30;99.90
52439;DHT22;38359;53.150;6.504;2022-11-22T16:55:43;7.30;99.90
52439;DHT22;38359;53.150;6.504;2022-11-22T17:06:16;7.30;99.90
52439;DHT22;38359;53.150;6.504;2022-11-22T17:16:45;7.30;99.90
52439;DHT22;38359;53.150;6.504;2022-11-22T17:27:12;7.30;99.90
52439;DHT22;38359;53.150;6.504;2022-11-22T17:37:40;7.30;99.90
52439;DHT22;38359;53.150;6.504;2022-11-22T17:48:06;7.30;99.90
52439;DHT22;38359;53.150;6.504;2022-11-22T17:58:33;7.30;99.90
52439;DHT22;38359;53.150;6.504;2022-11-22T18:08:59;7.30;99.90
52439;DHT22;38359;53.150;6.504;2022-11-22T18:19:25;7.30;99.90
52439;DHT22;38359;53.150;6.504;2022-11-22T18:29:51;7.20;99.90
52439;DHT22;38359;53.150;6.504;2022-11-22T18:40:17;7.30;99.90
52439;DHT22;38359;53.150;6.504;2022-11-22T18:50:42;7.20;99.90
52439;DHT22;38359;53.150;6.504;2022-11-22T19:01:16;7.20;99.90
52439;DHT22;38359;53.150;6.504;2022-11-22T19:11:43;7.20;99.90
52439;DHT22;38359;53.150;6.504;2022-11-22T19:22:09;7.20;99.90
52439;DHT22;38359;53.150;6.504;2022-11-22T19:32:35;7.30;99.90
52439;DHT22;38359;53.150;6.504;2022-11-22T19:43:00;7.30;99.90
52439;DHT22;38359;53.150;6.504;2022-11-22T19:53:27;7.50;99.90
52439;DHT22;38359;53.150;6.504;2022-11-22T20:03:58;7.40;99.90
52439;DHT22;38359;53.150;6.504;2022-11-22T20:14:25;7.50;99.90
52439;DHT22;38359;53.150;6.504;2022-11-22T20:24:51;7.40;99.90
52439;DHT22;38359;53.150;6.504;2022-11-22T20:35:17;7.30;99.90
52439;DHT22;38359;53.150;6.504;2022-11-22T20:45:43;7.30;99.90
52439;DHT22;38359;53.150;6.504;2022-11-22T20:56:11;7.20;99.90
52439;DHT22;38359;53.150;6.504;2022-11-22T21:06:37;7.10;99.90
52439;DHT22;38359;53.150;6.504;2022-11-22T21:17:03;7.10;99.90
52439;DHT22;38359;53.150;6.504;2022-11-22T21:27:28;7.10;99.90
52439;DHT22;38359;53.150;6.504;2022-11-22T21:37:54;7.10;99.90
52439;DHT22;38359;53.150;6.504;2022-11-22T21:48:20;7.10;99.90
52439;DHT22;38359;53.150;6.504;2022-11-22T21:58:48;7.20;99.90
52439;DHT22;38359;53.150;6.504;2022-11-22T22:09:14;7.30;99.90
52439;DHT22;38359;53.150;6.504;2022-11-22T22:19:40;7.20;99.90
52439;DHT22;38359;53.150;6.504;2022-11-22T22:30:07;7.30;99.90
52439;DHT22;38359;53.150;6.504;2022-11-22T22:40:33;7.20;99.90
52439;DHT22;38359;53.150;6.504;2022-11-22T22:51:44;7.20;99.90
52439;DHT22;38359;53.150;6.504;2022-11-22T23:02:03;7.30;99.90
52439;DHT22;38359;53.150;6.504;2022-11-22T23:12:28;7.30;99.90
52439;DHT22;38359;53.150;6.504;2022-11-22T23:22:54;7.30;99.90
52439;DHT22;38359;53.150;6.504;2022-11-22T23:33:20;7.40;99.90
52439;DHT22;38359;53.150;6.504;2022-11-22T23:43:50;7.50;99.90
52439;DHT22;38359;53.150;6.504;2022-11-22T23:54:17;7.50;99.90
